Terminal Aerodrome Forecast
Issued by NWS

Home | Current Version | Previous Version | Text Only | Print | Product List | Glossary On
Versions: 1 2 3 4 5 6 7 8 9 10 11 12 13 14 15 16 17 18 19
000
FTUS41 KALY 250415 AAA
TAFPSF
TAF AMD
KPSF 250415Z 2504/2524 00000KT 5SM BR SKC
     FM250700 00000KT 1 1/2SM BR SCT003
     FM250900 00000KT 1/2SM FG VV002
     FM251300 32003KT P6SM FEW045=

USA.gov is the U.S. government's official web portal to all federal, state and local government web resources and services.